createdAt,value
2022-10-28T00:02:36.297Z,16.10
2022-10-28T00:05:39.492Z,16.00
2022-10-28T00:08:42.855Z,16.00
2022-10-28T00:11:45.789Z,16.00
2022-10-28T00:14:48.658Z,16.00
2022-10-28T00:17:53.713Z,16.00
2022-10-28T00:21:01.470Z,16.00
2022-10-28T00:24:04.698Z,16.00
2022-10-28T00:27:07.593Z,16.00
2022-10-28T00:30:11.403Z,16.00
2022-10-28T00:33:15.694Z,16.00
2022-10-28T00:36:21.014Z,16.00
2022-10-28T00:39:26.307Z,15.90
2022-10-28T00:42:29.222Z,15.90
2022-10-28T00:45:32.225Z,15.80
2022-10-28T00:48:41.237Z,15.80
2022-10-28T00:51:45.385Z,15.80
2022-10-28T00:54:48.604Z,15.80
2022-10-28T00:57:56.572Z,15.70
2022-10-28T01:00:59.508Z,15.70
2022-10-28T01:04:04.365Z,15.70
2022-10-28T01:07:07.494Z,15.70
2022-10-28T01:10:11.670Z,15.70
2022-10-28T01:13:24.633Z,15.60
2022-10-28T01:16:35.325Z,15.60
2022-10-28T01:20:26.224Z,15.60
2022-10-28T01:23:36.266Z,15.60
2022-10-28T01:27:17.542Z,15.60
2022-10-28T01:30:22.562Z,15.50
2022-10-28T01:33:31.110Z,15.50
2022-10-28T01:36:40.488Z,15.40
2022-10-28T01:39:48.185Z,15.40
2022-10-28T01:42:56.760Z,15.40
2022-10-28T01:46:02.749Z,15.40
2022-10-28T01:49:13.421Z,15.40
2022-10-28T01:52:22.268Z,15.40
2022-10-28T01:55:30.062Z,15.40
2022-10-28T01:58:34.631Z,15.40
2022-10-28T02:01:38.289Z,15.40
2022-10-28T02:04:42.996Z,15.40
2022-10-28T02:07:46.646Z,15.30
2022-10-28T02:11:01.077Z,15.30
2022-10-28T02:14:16.609Z,15.20
2022-10-28T02:17:27.300Z,15.20
2022-10-28T02:20:40.425Z,15.10
2022-10-28T02:23:46.925Z,15.10
2022-10-28T02:26:57.063Z,15.10
2022-10-28T02:30:04.920Z,15.10
2022-10-28T02:33:13.832Z,15.10
2022-10-28T02:36:21.516Z,15.10
2022-10-28T02:39:27.676Z,15.10
2022-10-28T02:42:33.784Z,15.10
2022-10-28T02:45:40.684Z,15.00
2022-10-28T02:48:46.579Z,15.00
2022-10-28T02:51:55.321Z,15.00
2022-10-28T02:55:00.064Z,15.00
2022-10-28T02:58:03.198Z,15.00
2022-10-28T03:01:06.233Z,15.00
2022-10-28T03:04:09.430Z,15.00
2022-10-28T03:07:13.660Z,14.90
2022-10-28T03:10:17.261Z,14.90
2022-10-28T03:13:20.169Z,14.80
2022-10-28T03:16:23.410Z,14.80
2022-10-28T03:19:26.318Z,14.80
2022-10-28T03:22:30.616Z,14.70
2022-10-28T03:25:33.540Z,14.70
2022-10-28T03:28:36.822Z,14.70
2022-10-28T03:31:39.944Z,14.70
2022-10-28T03:34:42.857Z,14.70
2022-10-28T03:37:47.237Z,14.70
2022-10-28T03:40:50.469Z,14.70
2022-10-28T03:43:53.356Z,14.70
2022-10-28T03:46:56.258Z,14.60
2022-10-28T03:49:59.414Z,14.60
2022-10-28T03:53:03.753Z,14.60
2022-10-28T03:56:07.038Z,14.60
2022-10-28T03:59:10.606Z,14.50
2022-10-28T04:02:15.614Z,14.50
2022-10-28T04:05:19.048Z,14.50
2022-10-28T04:08:23.469Z,14.50
2022-10-28T04:11:26.352Z,14.50
2022-10-28T04:14:29.250Z,14.50
2022-10-28T04:17:32.463Z,14.50
2022-10-28T04:20:35.432Z,14.40
2022-10-28T04:23:39.729Z,14.40
2022-10-28T04:26:42.596Z,14.40
2022-10-28T04:29:45.469Z,14.40
2022-10-28T04:32:48.701Z,14.40
2022-10-28T04:35:51.586Z,14.40
2022-10-28T04:38:55.809Z,14.40
2022-10-28T04:41:58.681Z,14.40
2022-10-28T04:45:01.798Z,14.30
2022-10-28T04:48:04.959Z,14.30
2022-10-28T04:51:08.038Z,14.40
2022-10-28T04:54:12.514Z,14.30
2022-10-28T04:57:15.413Z,14.30
2022-10-28T05:00:18.655Z,14.30
2022-10-28T05:03:21.551Z,14.30
2022-10-28T05:06:24.416Z,14.30
2022-10-28T05:09:30.004Z,14.30
2022-10-28T05:12:32.898Z,14.20
2022-10-28T05:15:35.787Z,14.30
2022-10-28T05:18:38.750Z,14.30
2022-10-28T05:21:41.664Z,14.20
2022-10-28T05:24:45.885Z,14.20
2022-10-28T05:27:48.858Z,14.20
2022-10-28T05:30:51.724Z,14.20
2022-10-28T05:33:54.594Z,14.10
2022-10-28T05:36:57.694Z,14.10
2022-10-28T05:40:01.944Z,14.10
2022-10-28T05:43:05.426Z,14.10
2022-10-28T05:46:08.349Z,14.10
2022-10-28T05:49:11.241Z,14.10
2022-10-28T05:52:14.234Z,14.10
2022-10-28T05:55:19.925Z,14.00
2022-10-28T05:58:22.807Z,13.90
2022-10-28T06:01:25.748Z,13.80
2022-10-28T06:04:28.673Z,13.90
2022-10-28T06:07:31.834Z,13.90
2022-10-28T06:10:36.291Z,14.00
2022-10-28T06:13:37.789Z,13.90
2022-10-28T06:16:40.649Z,14.00
2022-10-28T06:19:43.528Z,14.00
2022-10-28T06:22:49.975Z,14.00
2022-10-28T06:25:58.420Z,14.10
2022-10-28T06:29:01.453Z,14.00
2022-10-28T06:32:05.517Z,13.90
2022-10-28T06:35:08.677Z,14.10
2022-10-28T06:38:11.890Z,14.10
2022-10-28T06:41:16.198Z,14.10
2022-10-28T06:44:19.067Z,14.10
2022-10-28T06:47:23.681Z,14.20
2022-10-28T06:50:27.007Z,14.10
2022-10-28T06:53:29.953Z,14.20
2022-10-28T06:56:34.211Z,14.20
2022-10-28T06:59:37.185Z,14.20
2022-10-28T07:02:42.837Z,14.20
2022-10-28T07:05:49.204Z,14.20
2022-10-28T07:08:53.058Z,14.30
2022-10-28T07:12:00.866Z,14.30
2022-10-28T07:15:09.019Z,14.30
2022-10-28T07:18:11.924Z,14.40
2022-10-28T07:21:14.815Z,14.40
2022-10-28T07:24:17.873Z,14.50
2022-10-28T07:27:22.218Z,14.50
2022-10-28T07:30:25.358Z,14.50
2022-10-28T07:33:28.232Z,14.60
2022-10-28T07:36:31.200Z,14.70
2022-10-28T07:39:34.176Z,14.70
2022-10-28T07:42:38.715Z,14.80
2022-10-28T07:45:41.711Z,14.80
2022-10-28T07:48:44.630Z,14.90
2022-10-28T07:51:47.816Z,15.00
2022-10-28T07:54:52.203Z,15.20
2022-10-28T07:57:56.732Z,15.30
2022-10-28T08:01:03.474Z,15.50
2022-10-28T08:04:06.709Z,15.70
2022-10-28T08:07:09.750Z,15.80
2022-10-28T08:10:12.634Z,16.00
2022-10-28T08:13:16.858Z,16.20
2022-10-28T08:16:20.355Z,16.40
2022-10-28T08:19:23.252Z,16.40
2022-10-28T08:22:26.217Z,16.50
2022-10-28T08:25:29.088Z,16.60
2022-10-28T08:28:33.334Z,16.70
2022-10-28T08:31:36.270Z,16.70
2022-10-28T08:34:42.486Z,16.80
2022-10-28T08:37:52.543Z,16.80
2022-10-28T08:41:03.297Z,17.00
2022-10-28T08:44:41.140Z,17.00
2022-10-28T08:47:54.520Z,17.00
2022-10-28T08:51:02.502Z,17.10
2022-10-28T08:54:13.336Z,17.10
2022-10-28T08:57:21.717Z,17.20
2022-10-28T09:00:29.013Z,17.30
2022-10-28T09:03:39.026Z,17.30
2022-10-28T09:06:42.306Z,17.40
2022-10-28T09:09:45.982Z,17.50
2022-10-28T09:12:57.054Z,17.60
2022-10-28T09:16:08.538Z,17.60
2022-10-28T09:19:20.360Z,17.70
2022-10-28T09:22:26.052Z,17.80
2022-10-28T09:25:37.870Z,17.90
2022-10-28T09:28:56.229Z,18.10
2022-10-28T09:32:13.510Z,18.30
2022-10-28T09:35:21.411Z,18.60
2022-10-28T09:38:29.071Z,18.80
2022-10-28T09:41:35.329Z,19.10
2022-10-28T09:44:45.199Z,19.30
2022-10-28T09:47:56.986Z,19.50
2022-10-28T09:51:00.825Z,19.60
2022-10-28T09:54:03.750Z,19.70
2022-10-28T09:57:06.992Z,19.90
2022-10-28T10:00:14.225Z,20.00
2022-10-28T10:03:18.748Z,20.10
2022-10-28T10:06:26.977Z,20.40
2022-10-28T10:09:32.841Z,20.60
2022-10-28T10:12:36.046Z,20.90
2022-10-28T10:15:43.789Z,21.10
2022-10-28T10:18:52.116Z,21.20
2022-10-28T10:21:55.882Z,21.30
2022-10-28T10:24:59.097Z,21.40
2022-10-28T10:28:05.808Z,21.50
2022-10-28T10:31:17.574Z,21.70
2022-10-28T10:34:26.214Z,22.00
2022-10-28T10:37:30.605Z,22.10
2022-10-28T10:40:35.638Z,22.20
2022-10-28T10:43:39.946Z,22.20
2022-10-28T10:46:42.982Z,22.10
2022-10-28T10:49:47.228Z,22.00
2022-10-28T10:52:53.128Z,22.10
2022-10-28T10:56:00.560Z,22.10
2022-10-28T10:59:06.903Z,22.10
2022-10-28T11:02:23.656Z,22.10
2022-10-28T11:05:32.147Z,22.20
2022-10-28T11:08:41.120Z,22.20
2022-10-28T11:11:44.141Z,22.30
2022-10-28T11:14:57.507Z,22.50
2022-10-28T11:18:05.045Z,22.80
2022-10-28T11:21:18.388Z,23.00
2022-10-28T11:24:40.427Z,23.10
2022-10-28T11:27:57.538Z,23.20
2022-10-28T11:31:23.689Z,23.40
2022-10-28T11:34:59.515Z,23.60
2022-10-28T11:38:16.184Z,23.70
2022-10-28T11:41:29.884Z,24.00
2022-10-28T11:44:45.184Z,24.30
2022-10-28T11:48:05.091Z,24.60
2022-10-28T11:51:24.768Z,24.90
2022-10-28T11:54:44.981Z,25.20
2022-10-28T11:57:59.847Z,25.60
2022-10-28T12:01:24.586Z,25.90
2022-10-28T12:04:44.956Z,26.20
2022-10-28T12:08:03.991Z,26.40
2022-10-28T12:11:21.422Z,26.70
2022-10-28T12:14:34.328Z,26.90
2022-10-28T12:17:42.365Z,27.20
2022-10-28T12:20:52.957Z,27.40
2022-10-28T12:23:58.568Z,27.60
2022-10-28T12:27:08.092Z,27.60
2022-10-28T12:30:21.279Z,27.60
2022-10-28T12:33:27.898Z,27.60
2022-10-28T12:36:36.825Z,27.80
2022-10-28T12:39:44.543Z,28.00
2022-10-28T12:42:54.757Z,28.10
2022-10-28T12:45:58.524Z,28.10
2022-10-28T12:49:10.583Z,28.20
2022-10-28T12:52:23.154Z,28.40
2022-10-28T12:55:34.416Z,28.50
2022-10-28T12:58:47.903Z,28.50
2022-10-28T13:01:51.766Z,28.30
2022-10-28T13:04:54.936Z,28.20
2022-10-28T13:08:25.023Z,28.20
2022-10-28T13:11:53.544Z,28.30
2022-10-28T13:15:36.598Z,28.30
2022-10-28T13:19:08.649Z,28.50
2022-10-28T13:22:33.436Z,28.70
2022-10-28T13:25:55.335Z,29.00
2022-10-28T13:29:00.049Z,29.20
2022-10-28T13:32:04.669Z,29.30
2022-10-28T13:35:16.957Z,29.50
2022-10-28T13:38:24.475Z,29.60
2022-10-28T13:41:41.016Z,29.70
2022-10-28T13:44:50.817Z,29.80
2022-10-28T13:48:29.941Z,30.00
2022-10-28T13:51:34.462Z,30.10
2022-10-28T13:54:58.860Z,29.80
2022-10-28T13:58:05.073Z,29.70
2022-10-28T14:01:41.657Z,29.40
2022-10-28T14:04:56.192Z,29.10
2022-10-28T14:08:02.275Z,28.90
2022-10-28T14:11:07.126Z,28.80
2022-10-28T14:14:17.764Z,28.60
2022-10-28T14:17:23.025Z,28.50
2022-10-28T14:20:31.591Z,28.50
2022-10-28T14:24:09.124Z,28.40
2022-10-28T14:27:27.614Z,28.30
2022-10-28T14:30:30.544Z,28.20
2022-10-28T14:33:33.592Z,28.20
2022-10-28T14:36:49.070Z,28.20
2022-10-28T14:40:02.955Z,28.20
2022-10-28T14:43:30.545Z,28.20
2022-10-28T14:46:50.381Z,28.20
2022-10-28T14:50:01.962Z,28.30
2022-10-28T14:53:08.644Z,28.20
2022-10-28T14:56:17.861Z,28.30
2022-10-28T14:59:26.700Z,28.30
2022-10-28T15:02:30.808Z,28.30
2022-10-28T15:05:34.822Z,28.30
2022-10-28T15:08:39.141Z,28.40
2022-10-28T15:11:45.656Z,28.30
2022-10-28T15:14:52.103Z,28.20
2022-10-28T15:17:55.498Z,28.10
2022-10-28T15:21:11.858Z,27.90
2022-10-28T15:24:16.107Z,27.60
2022-10-28T15:27:19.457Z,27.40
2022-10-28T15:30:25.303Z,27.10
2022-10-28T15:33:31.708Z,26.90
2022-10-28T15:36:34.786Z,26.70
2022-10-28T15:39:40.333Z,26.50
2022-10-28T15:42:50.337Z,26.40
2022-10-28T15:45:53.608Z,26.20
2022-10-28T15:48:58.957Z,25.90
2022-10-28T15:52:32.702Z,25.70
2022-10-28T15:59:09.203Z,25.30
2022-10-28T16:02:42.809Z,25.10
2022-10-28T16:05:47.322Z,24.90
2022-10-28T16:09:05.570Z,24.80
2022-10-28T16:12:15.585Z,24.60
2022-10-28T16:15:18.781Z,24.40
2022-10-28T16:18:22.467Z,24.40
2022-10-28T16:21:27.087Z,24.30
2022-10-28T16:24:30.034Z,24.20
2022-10-28T16:27:34.340Z,24.00
2022-10-28T16:30:37.253Z,23.90
2022-10-28T16:33:40.237Z,23.80
2022-10-28T16:36:43.126Z,23.70
2022-10-28T16:39:46.026Z,23.60
2022-10-28T16:42:50.299Z,23.60
2022-10-28T16:45:54.697Z,23.50
2022-10-28T16:48:57.563Z,23.40
2022-10-28T16:52:02.950Z,23.30
2022-10-28T16:55:14.011Z,23.10
2022-10-28T16:58:21.882Z,23.00
2022-10-28T17:01:27.673Z,22.90
2022-10-28T17:04:30.921Z,22.80
2022-10-28T17:07:33.847Z,22.80
2022-10-28T17:10:36.897Z,22.70
2022-10-28T17:13:41.308Z,22.50
2022-10-28T17:16:44.211Z,22.40
2022-10-28T17:19:47.140Z,22.40
2022-10-28T17:22:50.064Z,22.30
2022-10-28T17:25:57.370Z,22.20
2022-10-28T17:29:01.630Z,22.20
2022-10-28T17:32:04.903Z,22.20
2022-10-28T17:35:08.351Z,22.10
2022-10-28T17:38:11.220Z,22.10
2022-10-28T17:41:14.111Z,22.00
2022-10-28T17:44:18.363Z,21.90
2022-10-28T17:47:21.295Z,21.90
2022-10-28T17:50:24.198Z,21.80
2022-10-28T17:53:27.344Z,21.60
2022-10-28T17:56:30.466Z,21.50
2022-10-28T17:59:34.712Z,21.30
2022-10-28T18:02:39.617Z,21.20
2022-10-28T18:05:42.598Z,21.30
2022-10-28T18:08:45.908Z,21.30
2022-10-28T18:11:48.892Z,21.20
2022-10-28T18:14:53.106Z,21.10
2022-10-28T18:17:56.012Z,21.20
2022-10-28T18:20:59.278Z,21.00
2022-10-28T18:24:04.464Z,21.00
2022-10-28T18:27:07.495Z,20.90
2022-10-28T18:30:12.509Z,20.90
2022-10-28T18:33:15.424Z,20.90
2022-10-28T18:36:20.358Z,20.80
2022-10-28T18:39:23.262Z,20.80
2022-10-28T18:42:26.153Z,20.60
2022-10-28T18:45:30.477Z,20.60
2022-10-28T18:48:33.380Z,20.60
2022-10-28T18:51:36.539Z,20.40
2022-10-28T18:54:39.393Z,20.40
2022-10-28T18:57:42.347Z,20.40
2022-10-28T19:00:46.581Z,20.50
2022-10-28T19:03:52.800Z,20.50
2022-10-28T19:06:55.744Z,20.50
2022-10-28T19:09:58.712Z,20.40
2022-10-28T19:13:01.644Z,20.40
2022-10-28T19:16:06.853Z,20.30
2022-10-28T19:19:09.790Z,20.20
2022-10-28T19:22:12.823Z,20.10
2022-10-28T19:25:15.820Z,20.00
2022-10-28T19:28:18.681Z,20.10
2022-10-28T19:31:25.160Z,20.20
2022-10-28T19:34:28.344Z,20.20
2022-10-28T19:37:31.276Z,20.30
2022-10-28T19:40:34.214Z,20.30
2022-10-28T19:43:37.737Z,20.30
2022-10-28T19:46:41.984Z,20.30
2022-10-28T19:49:45.106Z,20.30
2022-10-28T19:52:48.341Z,20.30
2022-10-28T19:55:55.651Z,20.30
2022-10-28T19:59:00.378Z,20.30
2022-10-28T20:02:04.779Z,20.30
2022-10-28T20:05:08.308Z,20.30
2022-10-28T20:08:11.191Z,20.30
2022-10-28T20:11:18.933Z,20.30
2022-10-28T20:14:24.546Z,20.20
2022-10-28T20:17:28.855Z,20.20
2022-10-28T20:20:32.019Z,20.20
2022-10-28T20:23:35.846Z,20.10
2022-10-28T20:26:39.679Z,20.10
2022-10-28T20:29:42.587Z,20.10
2022-10-28T20:32:48.060Z,20.10
2022-10-28T20:35:52.747Z,20.00
2022-10-28T20:38:56.224Z,19.90
2022-10-28T20:41:59.129Z,19.90
2022-10-28T20:45:02.021Z,19.90
2022-10-28T20:48:07.154Z,19.90
2022-10-28T20:51:10.675Z,19.90
2022-10-28T20:54:13.567Z,19.80
2022-10-28T20:57:16.519Z,19.80
2022-10-28T21:00:19.653Z,19.80
2022-10-28T21:03:23.907Z,19.80
2022-10-28T21:06:27.859Z,19.80
2022-10-28T21:09:30.992Z,19.70
2022-10-28T21:12:33.907Z,19.70
2022-10-28T21:15:38.344Z,19.70
2022-10-28T21:18:42.812Z,19.70
2022-10-28T21:21:45.712Z,19.70
2022-10-28T21:24:48.562Z,19.70
2022-10-28T21:27:51.502Z,19.60
2022-10-28T21:30:59.923Z,19.50
2022-10-28T21:34:07.382Z,19.40
2022-10-28T21:37:11.377Z,19.30
2022-10-28T21:40:15.212Z,19.30
2022-10-28T21:43:18.106Z,19.40
2022-10-28T21:46:22.367Z,19.30
2022-10-28T21:49:26.596Z,19.30
2022-10-28T21:52:29.806Z,19.30
2022-10-28T21:55:46.153Z,19.20
2022-10-28T21:58:51.482Z,19.20
2022-10-28T22:01:54.631Z,19.20
2022-10-28T22:04:58.926Z,19.20
2022-10-28T22:08:04.460Z,19.10
2022-10-28T22:11:12.701Z,19.10
2022-10-28T22:14:16.148Z,19.10
2022-10-28T22:17:19.041Z,19.10
2022-10-28T22:20:23.455Z,19.10
2022-10-28T22:23:26.339Z,19.10
2022-10-28T22:26:31.208Z,19.00
2022-10-28T22:29:34.092Z,18.90
2022-10-28T22:32:37.020Z,18.80
2022-10-28T22:35:41.263Z,18.70
2022-10-28T22:38:44.467Z,18.70
2022-10-28T22:41:47.334Z,18.60
2022-10-28T22:44:50.224Z,18.60
2022-10-28T22:47:53.391Z,18.50
2022-10-28T22:50:58.439Z,18.60
2022-10-28T22:54:01.349Z,18.50
2022-10-28T22:57:04.364Z,18.50
2022-10-28T23:00:08.684Z,18.50
2022-10-28T23:03:12.051Z,18.30
2022-10-28T23:06:18.387Z,18.20
2022-10-28T23:09:21.375Z,18.20
2022-10-28T23:12:24.356Z,18.20
2022-10-28T23:15:28.036Z,18.20
2022-10-28T23:18:30.940Z,18.20
2022-10-28T23:21:35.183Z,18.20
2022-10-28T23:24:38.065Z,18.20
2022-10-28T23:27:41.611Z,18.20
2022-10-28T23:30:44.516Z,18.10
2022-10-28T23:33:47.712Z,18.00
2022-10-28T23:36:54.334Z,18.00
2022-10-28T23:39:57.287Z,18.00
2022-10-28T23:43:00.252Z,17.90
2022-10-28T23:46:03.128Z,17.90
2022-10-28T23:49:06.046Z,17.90
2022-10-28T23:52:10.295Z,17.80
2022-10-28T23:55:13.182Z,17.80
2022-10-28T23:58:17.973Z,17.80
